EGPI/ILY METAR and TAF weather

Enter ICAO airport designator
Station Type Date Time Source
EGPI METAR 2022/06/30 01:50 UTC NOAA

EGPI 300150Z AUTO 17001KT 9999 BKN027/// 10/10 Q1008


Station Type Date Time Source
EGPI Decoded METAR 2022/06/30 01:50 UTC NOAA

Islay, United Kingdom (EGPI) 55-40-55N 006-15-24W
Jun 29, 2022 - 09:50 PM EDT / 2022.06.30 0150 UTC
Wind: from the S (170 degrees) at 1 MPH (1 KT):0
Visibility: greater than 7 mile(s):0
Sky conditions: mostly cloudy
Temperature: 50 F (10 C)
Dew Point: 50 F (10 C)
Relative Humidity: 100%
Pressure (altimeter): 29.77 in. Hg (1008 hPa)
ob: EGPI 300150Z AUTO 17001KT 9999 BKN027/// 10/10 Q1008
cycle: 2

Station Type Date Time Source
EGPI TAF UTC NOAA

Error!

Example: see airport list